sensor_id;sensor_type;location;lat;lon;timestamp;pressure;altitude;pressure_sealevel;temperature;humidity
20656;BME280;10487;53.320;8.672;2022-09-21T00:01:25;102355.03;;;5.98;57.25
20656;BME280;10487;53.320;8.672;2022-09-21T00:04:27;102349.81;;;5.95;57.51
20656;BME280;10487;53.320;8.672;2022-09-21T00:07:29;102351.66;;;5.93;57.37
20656;BME280;10487;53.320;8.672;2022-09-21T00:10:31;102351.72;;;5.91;57.38
20656;BME280;10487;53.320;8.672;2022-09-21T00:13:33;102357.03;;;5.90;57.36
20656;BME280;10487;53.320;8.672;2022-09-21T00:16:39;102358.00;;;5.87;57.30
20656;BME280;10487;53.320;8.672;2022-09-21T00:19:40;102353.66;;;5.85;57.37
20656;BME280;10487;53.320;8.672;2022-09-21T00:22:42;102354.59;;;5.84;57.34
20656;BME280;10487;53.320;8.672;2022-09-21T00:25:44;102365.19;;;5.82;57.33
20656;BME280;10487;53.320;8.672;2022-09-21T00:28:46;102359.13;;;5.79;57.23
20656;BME280;10487;53.320;8.672;2022-09-21T00:31:47;102353.94;;;5.74;57.18
20656;BME280;10487;53.320;8.672;2022-09-21T00:34:50;102362.91;;;5.70;57.34
20656;BME280;10487;53.320;8.672;2022-09-21T00:37:52;102360.34;;;5.67;57.35
20656;BME280;10487;53.320;8.672;2022-09-21T00:40:53;102364.00;;;5.63;57.19
20656;BME280;10487;53.320;8.672;2022-09-21T00:47:23;102360.69;;;5.55;57.27
20656;BME280;10487;53.320;8.672;2022-09-21T00:50:27;102356.34;;;5.53;57.37
20656;BME280;10487;53.320;8.672;2022-09-21T00:53:28;102361.69;;;5.51;57.37
20656;BME280;10487;53.320;8.672;2022-09-21T00:56:34;102366.16;;;5.49;57.39
20656;BME280;10487;53.320;8.672;2022-09-21T00:59:38;102359.19;;;5.45;57.43
20656;BME280;10487;53.320;8.672;2022-09-21T01:02:40;102358.41;;;5.42;57.48
20656;BME280;10487;53.320;8.672;2022-09-21T01:05:42;102363.78;;;5.38;57.54
20656;BME280;10487;53.320;8.672;2022-09-21T01:08:46;102365.63;;;5.36;57.60
20656;BME280;10487;53.320;8.672;2022-09-21T01:18:26;102363.16;;;5.29;57.59
20656;BME280;10487;53.320;8.672;2022-09-21T01:21:33;102363.19;;;5.27;57.59
20656;BME280;10487;53.320;8.672;2022-09-21T01:28:05;102367.72;;;5.24;57.60
20656;BME280;10487;53.320;8.672;2022-09-21T01:31:14;102366.00;;;5.21;57.53
20656;BME280;10487;53.320;8.672;2022-09-21T01:34:27;102361.66;;;5.19;57.59
20656;BME280;10487;53.320;8.672;2022-09-21T01:37:40;102370.50;;;5.18;57.56
20656;BME280;10487;53.320;8.672;2022-09-21T01:40:46;102376.66;;;5.18;57.49
20656;BME280;10487;53.320;8.672;2022-09-21T01:43:54;102373.19;;;5.16;57.50
20656;BME280;10487;53.320;8.672;2022-09-21T01:47:00;102369.72;;;5.14;57.52
20656;BME280;10487;53.320;8.672;2022-09-21T01:50:05;102368.88;;;5.12;57.59
20656;BME280;10487;53.320;8.672;2022-09-21T01:53:39;102373.31;;;5.10;57.59
20656;BME280;10487;53.320;8.672;2022-09-21T01:57:05;102368.97;;;5.08;57.44
20656;BME280;10487;53.320;8.672;2022-09-21T02:00:08;102372.56;;;5.05;57.50
20656;BME280;10487;53.320;8.672;2022-09-21T02:03:20;102373.47;;;5.04;57.54
20656;BME280;10487;53.320;8.672;2022-09-21T02:06:27;102369.13;;;5.02;57.59
20656;BME280;10487;53.320;8.672;2022-09-21T02:09:29;102370.09;;;4.99;57.67
20656;BME280;10487;53.320;8.672;2022-09-21T02:12:31;102372.78;;;4.96;57.74
20656;BME280;10487;53.320;8.672;2022-09-21T02:16:02;102370.16;;;4.96;57.72
20656;BME280;10487;53.320;8.672;2022-09-21T02:19:25;102370.22;;;4.93;57.74
20656;BME280;10487;53.320;8.672;2022-09-21T02:29:05;102374.81;;;4.87;57.64
20656;BME280;10487;53.320;8.672;2022-09-21T02:39:21;102366.19;;;4.78;57.63
20656;BME280;10487;53.320;8.672;2022-09-21T02:42:29;102374.16;;;4.77;57.78
20656;BME280;10487;53.320;8.672;2022-09-21T02:45:36;102373.31;;;4.75;57.79
20656;BME280;10487;53.320;8.672;2022-09-21T02:48:46;102376.88;;;4.74;57.84
20656;BME280;10487;53.320;8.672;2022-09-21T02:51:51;102369.81;;;4.73;57.78
20656;BME280;10487;53.320;8.672;2022-09-21T02:54:54;102376.94;;;4.71;57.87
20656;BME280;10487;53.320;8.672;2022-09-21T02:58:00;102377.81;;;4.70;57.77
20656;BME280;10487;53.320;8.672;2022-09-21T03:01:04;102379.66;;;4.68;57.85
20656;BME280;10487;53.320;8.672;2022-09-21T03:04:08;102378.81;;;4.67;57.78
20656;BME280;10487;53.320;8.672;2022-09-21T03:07:10;102382.34;;;4.66;57.85
20656;BME280;10487;53.320;8.672;2022-09-21T03:10:11;102383.22;;;4.67;57.80
20656;BME280;10487;53.320;8.672;2022-09-21T03:13:13;102380.56;;;4.67;57.75
20656;BME280;10487;53.320;8.672;2022-09-21T03:16:15;102384.16;;;4.64;57.71
20656;BME280;10487;53.320;8.672;2022-09-21T03:19:16;102384.16;;;4.64;57.74
20656;BME280;10487;53.320;8.672;2022-09-21T03:22:18;102389.47;;;4.63;57.69
20656;BME280;10487;53.320;8.672;2022-09-21T03:25:21;102385.13;;;4.60;57.79
20656;BME280;10487;53.320;8.672;2022-09-21T03:28:23;102391.34;;;4.58;57.66
20656;BME280;10487;53.320;8.672;2022-09-21T03:31:24;102393.16;;;4.56;57.65
20656;BME280;10487;53.320;8.672;2022-09-21T03:34:26;102393.22;;;4.53;57.78
20656;BME280;10487;53.320;8.672;2022-09-21T03:37:27;102402.97;;;4.51;57.80
20656;BME280;10487;53.320;8.672;2022-09-21T03:40:32;102400.38;;;4.49;57.75
20656;BME280;10487;53.320;8.672;2022-09-21T03:43:33;102401.25;;;4.48;57.80
20656;BME280;10487;53.320;8.672;2022-09-21T03:46:35;102401.31;;;4.47;57.82
20656;BME280;10487;53.320;8.672;2022-09-21T03:49:37;102388.97;;;4.46;57.76
20656;BME280;10487;53.320;8.672;2022-09-21T03:52:39;102397.84;;;4.43;57.88
20656;BME280;10487;53.320;8.672;2022-09-21T03:55:41;102399.66;;;4.41;57.89
20656;BME280;10487;53.320;8.672;2022-09-21T03:58:43;102397.06;;;4.40;57.70
20656;BME280;10487;53.320;8.672;2022-09-21T04:01:45;102405.06;;;4.37;57.83
20656;BME280;10487;53.320;8.672;2022-09-21T04:04:46;102402.47;;;4.34;58.02
20656;BME280;10487;53.320;8.672;2022-09-21T04:07:48;102410.44;;;4.31;58.01
20656;BME280;10487;53.320;8.672;2022-09-21T04:10:50;102405.25;;;4.28;58.01
20656;BME280;10487;53.320;8.672;2022-09-21T04:13:52;102395.63;;;4.25;58.01
20656;BME280;10487;53.320;8.672;2022-09-21T04:16:57;102399.13;;;4.26;58.01
20656;BME280;10487;53.320;8.672;2022-09-21T04:19:59;102394.69;;;4.26;58.05
20656;BME280;10487;53.320;8.672;2022-09-21T04:23:01;102392.94;;;4.27;58.02
20656;BME280;10487;53.320;8.672;2022-09-21T04:26:02;102394.69;;;4.26;57.88
20656;BME280;10487;53.320;8.672;2022-09-21T04:29:04;102400.91;;;4.25;57.93
20656;BME280;10487;53.320;8.672;2022-09-21T04:32:06;102397.41;;;4.23;57.92
20656;BME280;10487;53.320;8.672;2022-09-21T04:35:09;102396.56;;;4.23;58.11
20656;BME280;10487;53.320;8.672;2022-09-21T04:38:11;102399.22;;;4.21;57.95
20656;BME280;10487;53.320;8.672;2022-09-21T04:41:14;102407.16;;;4.21;57.90
20656;BME280;10487;53.320;8.672;2022-09-21T04:44:16;102400.09;;;4.22;58.00
20656;BME280;10487;53.320;8.672;2022-09-21T04:47:20;102405.31;;;4.23;57.86
20656;BME280;10487;53.320;8.672;2022-09-21T04:50:24;102408.91;;;4.22;57.89
20656;BME280;10487;53.320;8.672;2022-09-21T04:53:26;102407.75;;;4.34;58.43
20656;BME280;10487;53.320;8.672;2022-09-21T04:56:27;102406.53;;;4.50;58.15
20656;BME280;10487;53.320;8.672;2022-09-21T04:59:29;102403.63;;;4.60;58.40
20656;BME280;10487;53.320;8.672;2022-09-21T05:02:30;102405.25;;;4.66;58.24
20656;BME280;10487;53.320;8.672;2022-09-21T05:05:32;102407.78;;;4.72;58.20
20656;BME280;10487;53.320;8.672;2022-09-21T05:08:34;102408.72;;;4.69;58.11
20656;BME280;10487;53.320;8.672;2022-09-21T05:11:54;102404.38;;;4.65;58.12
20656;BME280;10487;53.320;8.672;2022-09-21T05:14:56;102408.91;;;4.60;58.12
20656;BME280;10487;53.320;8.672;2022-09-21T05:17:57;102413.41;;;4.57;58.45
20656;BME280;10487;53.320;8.672;2022-09-21T05:21:00;102418.25;;;4.75;58.42
20656;BME280;10487;53.320;8.672;2022-09-21T05:24:02;102414.78;;;4.74;58.33
20656;BME280;10487;53.320;8.672;2022-09-21T05:27:05;102416.59;;;4.71;58.30
20656;BME280;10487;53.320;8.672;2022-09-21T05:30:08;102428.16;;;4.67;58.08
20656;BME280;10487;53.320;8.672;2022-09-21T05:33:13;102428.28;;;4.62;58.08
20656;BME280;10487;53.320;8.672;2022-09-21T05:39:24;102424.50;;;4.72;58.13
20656;BME280;10487;53.320;8.672;2022-09-21T05:42:26;102428.13;;;4.68;58.27
20656;BME280;10487;53.320;8.672;2022-09-21T05:45:28;102431.75;;;4.64;58.11
20656;BME280;10487;53.320;8.672;2022-09-21T05:48:35;102430.94;;;4.61;58.07
20656;BME280;10487;53.320;8.672;2022-09-21T05:55:46;102439.03;;;4.55;58.15
20656;BME280;10487;53.320;8.672;2022-09-21T06:05:19;102445.16;;;4.57;58.18
20656;BME280;10487;53.320;8.672;2022-09-21T06:08:21;102438.03;;;4.59;58.29
20656;BME280;10487;53.320;8.672;2022-09-21T06:11:23;102439.75;;;4.61;58.25
20656;BME280;10487;53.320;8.672;2022-09-21T06:14:24;102442.31;;;4.64;58.24
20656;BME280;10487;53.320;8.672;2022-09-21T06:17:26;102450.19;;;4.67;58.19
20656;BME280;10487;53.320;8.672;2022-09-21T06:20:28;102451.88;;;4.70;58.02
20656;BME280;10487;53.320;8.672;2022-09-21T06:23:30;102455.38;;;4.72;58.20
20656;BME280;10487;53.320;8.672;2022-09-21T06:26:31;102456.22;;;4.72;58.14
20656;BME280;10487;53.320;8.672;2022-09-21T06:29:33;102459.72;;;4.74;58.02
20656;BME280;10487;53.320;8.672;2022-09-21T06:32:34;102457.03;;;4.76;58.16
20656;BME280;10487;53.320;8.672;2022-09-21T06:35:36;102461.38;;;4.78;58.06
20656;BME280;10487;53.320;8.672;2022-09-21T06:38:38;102452.56;;;4.80;58.11
20656;BME280;10487;53.320;8.672;2022-09-21T06:41:39;102456.91;;;4.82;58.28
20656;BME280;10487;53.320;8.672;2022-09-21T06:44:41;102459.41;;;4.88;58.24
20656;BME280;10487;53.320;8.672;2022-09-21T06:47:46;102457.53;;;4.93;58.22
20656;BME280;10487;53.320;8.672;2022-09-21T06:50:49;102458.28;;;4.98;58.21
20656;BME280;10487;53.320;8.672;2022-09-21T06:53:55;102458.16;;;5.04;58.26
20656;BME280;10487;53.320;8.672;2022-09-21T06:56:57;102459.81;;;5.08;58.36
20656;BME280;10487;53.320;8.672;2022-09-21T07:00:00;102455.25;;;5.15;58.38
20656;BME280;10487;53.320;8.672;2022-09-21T07:03:02;102456.91;;;5.20;58.40
20656;BME280;10487;53.320;8.672;2022-09-21T07:06:04;102461.13;;;5.27;58.25
20656;BME280;10487;53.320;8.672;2022-09-21T07:09:06;102461.81;;;5.35;58.38
20656;BME280;10487;53.320;8.672;2022-09-21T07:12:28;102464.22;;;5.45;58.56
20656;BME280;10487;53.320;8.672;2022-09-21T07:15:31;102461.28;;;5.57;58.51
20656;BME280;10487;53.320;8.672;2022-09-21T07:18:33;102467.97;;;5.71;58.68
20656;BME280;10487;53.320;8.672;2022-09-21T07:21:43;102466.63;;;5.87;58.86
20656;BME280;10487;53.320;8.672;2022-09-21T07:24:45;102466.25;;;6.01;58.90
20656;BME280;10487;53.320;8.672;2022-09-21T07:27:47;102471.13;;;6.16;58.98
20656;BME280;10487;53.320;8.672;2022-09-21T07:30:48;102469.84;;;6.29;58.87
20656;BME280;10487;53.320;8.672;2022-09-21T07:33:55;102474.84;;;6.40;58.94
20656;BME280;10487;53.320;8.672;2022-09-21T07:36:57;102468.38;;;6.50;58.95
20656;BME280;10487;53.320;8.672;2022-09-21T07:39:59;102475.22;;;6.57;58.80
20656;BME280;10487;53.320;8.672;2022-09-21T07:43:03;102474.13;;;6.64;58.92
20656;BME280;10487;53.320;8.672;2022-09-21T07:46:06;102473.97;;;6.70;58.87
20656;BME280;10487;53.320;8.672;2022-09-21T07:49:10;102474.66;;;6.77;58.71
20656;BME280;10487;53.320;8.672;2022-09-21T07:52:12;102471.81;;;6.83;58.87
20656;BME280;10487;53.320;8.672;2022-09-21T07:55:14;102476.00;;;6.90;58.84
20656;BME280;10487;53.320;8.672;2022-09-21T07:58:15;102482.00;;;6.96;58.79
20656;BME280;10487;53.320;8.672;2022-09-21T08:01:38;102480.94;;;7.02;58.89
20656;BME280;10487;53.320;8.672;2022-09-21T08:04:40;102480.75;;;7.08;58.95
20656;BME280;10487;53.320;8.672;2022-09-21T08:07:42;102478.81;;;7.13;58.99
20656;BME280;10487;53.320;8.672;2022-09-21T08:10:43;102483.03;;;7.18;59.01
20656;BME280;10487;53.320;8.672;2022-09-21T08:13:45;102484.63;;;7.24;58.91
20656;BME280;10487;53.320;8.672;2022-09-21T08:16:47;102481.66;;;7.33;58.83
20656;BME280;10487;53.320;8.672;2022-09-21T08:19:49;102481.47;;;7.39;58.83
20656;BME280;10487;53.320;8.672;2022-09-21T08:22:51;102479.47;;;7.46;58.85
20656;BME280;10487;53.320;8.672;2022-09-21T08:29:02;102483.41;;;7.60;58.99
20656;BME280;10487;53.320;8.672;2022-09-21T08:32:04;102481.44;;;7.67;58.94
20656;BME280;10487;53.320;8.672;2022-09-21T08:35:07;102486.41;;;7.76;58.81
20656;BME280;10487;53.320;8.672;2022-09-21T08:38:09;102482.63;;;7.83;58.87
20656;BME280;10487;53.320;8.672;2022-09-21T08:41:25;102478.84;;;7.90;58.85
20656;BME280;10487;53.320;8.672;2022-09-21T08:47:43;102488.06;;;8.05;58.81
20656;BME280;10487;53.320;8.672;2022-09-21T08:50:51;102485.09;;;8.14;58.96
20656;BME280;10487;53.320;8.672;2022-09-21T08:53:58;102489.16;;;8.24;58.92
20656;BME280;10487;53.320;8.672;2022-09-21T08:57:02;102487.94;;;8.32;59.02
20656;BME280;10487;53.320;8.672;2022-09-21T09:00:12;102487.53;;;8.43;58.87
20656;BME280;10487;53.320;8.672;2022-09-21T09:03:42;102484.56;;;8.52;58.90
20656;BME280;10487;53.320;8.672;2022-09-21T09:16:28;102495.38;;;8.92;58.83
20656;BME280;10487;53.320;8.672;2022-09-21T09:19:49;102501.09;;;9.05;58.86
20656;BME280;10487;53.320;8.672;2022-09-21T09:23:11;102500.69;;;9.15;58.83
20656;BME280;10487;53.320;8.672;2022-09-21T09:26:21;102494.97;;;9.24;58.84
20656;BME280;10487;53.320;8.672;2022-09-21T09:33:01;102494.94;;;9.48;58.86
20656;BME280;10487;53.320;8.672;2022-09-21T09:36:10;102495.28;;;9.60;58.81
20656;BME280;10487;53.320;8.672;2022-09-21T09:39:14;102493.88;;;9.72;58.74
20656;BME280;10487;53.320;8.672;2022-09-21T09:49:13;102499.34;;;10.49;58.96
20656;BME280;10487;53.320;8.672;2022-09-21T09:52:17;102493.94;;;10.70;58.79
20656;BME280;10487;53.320;8.672;2022-09-21T09:55:28;102494.88;;;10.87;58.92
20656;BME280;10487;53.320;8.672;2022-09-21T09:58:55;102495.72;;;11.06;58.77
20656;BME280;10487;53.320;8.672;2022-09-21T10:02:01;102503.66;;;11.27;58.66
20656;BME280;10487;53.320;8.672;2022-09-21T10:05:04;102497.22;;;11.48;58.58
20656;BME280;10487;53.320;8.672;2022-09-21T10:08:44;102496.03;;;11.72;58.95
20656;BME280;10487;53.320;8.672;2022-09-21T10:11:49;102500.19;;;11.95;58.61
20656;BME280;10487;53.320;8.672;2022-09-21T10:14:54;102498.09;;;12.17;58.24
20656;BME280;10487;53.320;8.672;2022-09-21T10:18:14;102511.00;;;12.43;58.11
20656;BME280;10487;53.320;8.672;2022-09-21T10:21:35;102500.72;;;12.68;58.11
20656;BME280;10487;53.320;8.672;2022-09-21T10:24:37;102503.06;;;12.90;58.14
20656;BME280;10487;53.320;8.672;2022-09-21T10:27:44;102502.09;;;13.06;58.05
20656;BME280;10487;53.320;8.672;2022-09-21T10:30:47;102499.16;;;13.27;57.93
20656;BME280;10487;53.320;8.672;2022-09-21T10:33:52;102500.75;;;13.45;57.47
20656;BME280;10487;53.320;8.672;2022-09-21T10:36:57;102496.06;;;13.64;57.84
20656;BME280;10487;53.320;8.672;2022-09-21T10:40:00;102496.69;;;13.83;57.43
20656;BME280;10487;53.320;8.672;2022-09-21T10:43:02;102502.59;;;14.04;57.50
20656;BME280;10487;53.320;8.672;2022-09-21T10:46:04;102495.44;;;14.18;57.29
20656;BME280;10487;53.320;8.672;2022-09-21T10:49:14;102495.47;;;14.32;57.55
20656;BME280;10487;53.320;8.672;2022-09-21T10:52:21;102487.31;;;14.48;57.42
20656;BME280;10487;53.320;8.672;2022-09-21T10:55:24;102490.59;;;14.67;57.32
20656;BME280;10487;53.320;8.672;2022-09-21T10:58:29;102484.31;;;14.81;57.10
20656;BME280;10487;53.320;8.672;2022-09-21T11:01:31;102485.25;;;14.94;56.99
20656;BME280;10487;53.320;8.672;2022-09-21T11:04:50;102479.09;;;15.06;57.08
20656;BME280;10487;53.320;8.672;2022-09-21T11:08:04;102482.97;;;15.15;56.86
20656;BME280;10487;53.320;8.672;2022-09-21T11:14:55;102478.59;;;15.40;56.92
20656;BME280;10487;53.320;8.672;2022-09-21T11:18:05;102483.72;;;15.57;57.02
20656;BME280;10487;53.320;8.672;2022-09-21T11:21:14;102476.53;;;15.71;56.62
20656;BME280;10487;53.320;8.672;2022-09-21T11:28:36;102476.34;;;15.74;56.44
20656;BME280;10487;53.320;8.672;2022-09-21T11:31:26;102481.72;;;15.74;56.30
20656;BME280;10487;53.320;8.672;2022-09-21T11:38:02;102478.28;;;15.97;56.42
20656;BME280;10487;53.320;8.672;2022-09-21T11:44:52;102482.97;;;16.20;56.20
20656;BME280;10487;53.320;8.672;2022-09-21T11:51:33;102475.09;;;16.42;55.87
20656;BME280;10487;53.320;8.672;2022-09-21T11:55:04;102470.97;;;16.49;55.89
20656;BME280;10487;53.320;8.672;2022-09-21T12:01:37;102473.66;;;16.49;55.39
20656;BME280;10487;53.320;8.672;2022-09-21T12:04:50;102475.28;;;16.39;55.46
20656;BME280;10487;53.320;8.672;2022-09-21T12:15:08;102473.34;;;16.03;55.36
20656;BME280;10487;53.320;8.672;2022-09-21T12:18:21;102468.72;;;15.93;55.55
20656;BME280;10487;53.320;8.672;2022-09-21T12:21:30;102468.56;;;15.82;55.35
20656;BME280;10487;53.320;8.672;2022-09-21T12:24:39;102463.06;;;15.71;55.44
20656;BME280;10487;53.320;8.672;2022-09-21T12:27:47;102456.03;;;15.55;55.43
20656;BME280;10487;53.320;8.672;2022-09-21T12:30:55;102454.19;;;15.43;55.57
20656;BME280;10487;53.320;8.672;2022-09-21T12:37:16;102452.66;;;15.27;55.60
20656;BME280;10487;53.320;8.672;2022-09-21T12:40:20;102453.72;;;15.24;55.55
20656;BME280;10487;53.320;8.672;2022-09-21T12:43:40;102447.50;;;15.22;55.49
20656;BME280;10487;53.320;8.672;2022-09-21T12:46:47;102449.66;;;15.17;55.31
20656;BME280;10487;53.320;8.672;2022-09-21T12:49:57;102444.69;;;15.11;55.51
20656;BME280;10487;53.320;8.672;2022-09-21T12:53:02;102445.09;;;15.05;55.29
20656;BME280;10487;53.320;8.672;2022-09-21T12:56:05;102434.84;;;14.97;55.27
20656;BME280;10487;53.320;8.672;2022-09-21T12:59:39;102440.72;;;14.90;55.44
20656;BME280;10487;53.320;8.672;2022-09-21T13:02:52;102434.38;;;14.91;55.42
20656;BME280;10487;53.320;8.672;2022-09-21T13:09:43;102429.31;;;14.86;55.11
20656;BME280;10487;53.320;8.672;2022-09-21T13:12:52;102415.88;;;14.86;55.17
20656;BME280;10487;53.320;8.672;2022-09-21T13:15:55;102418.81;;;14.96;55.25
20656;BME280;10487;53.320;8.672;2022-09-21T13:19:15;102422.72;;;15.04;55.10
20656;BME280;10487;53.320;8.672;2022-09-21T13:22:25;102417.88;;;15.10;55.00
20656;BME280;10487;53.320;8.672;2022-09-21T13:25:29;102411.69;;;15.09;54.70
20656;BME280;10487;53.320;8.672;2022-09-21T13:28:58;102409.81;;;15.10;54.70
20656;BME280;10487;53.320;8.672;2022-09-21T13:41:56;102406.25;;;15.23;54.43
20656;BME280;10487;53.320;8.672;2022-09-21T13:48:20;102409.97;;;15.21;54.48
20656;BME280;10487;53.320;8.672;2022-09-21T13:51:26;102404.72;;;15.19;54.31
20656;BME280;10487;53.320;8.672;2022-09-21T13:57:45;102403.44;;;15.25;54.51
20656;BME280;10487;53.320;8.672;2022-09-21T14:03:56;102404.91;;;15.16;54.39
20656;BME280;10487;53.320;8.672;2022-09-21T14:07:03;102396.50;;;15.08;54.34
20656;BME280;10487;53.320;8.672;2022-09-21T14:10:07;102398.81;;;15.00;54.46
20656;BME280;10487;53.320;8.672;2022-09-21T14:16:55;102390.63;;;14.89;54.43
20656;BME280;10487;53.320;8.672;2022-09-21T14:19:58;102396.00;;;14.89;54.68
20656;BME280;10487;53.320;8.672;2022-09-21T14:26:34;102386.38;;;14.99;54.53
20656;BME280;10487;53.320;8.672;2022-09-21T14:29:49;102387.00;;;15.02;54.44
20656;BME280;10487;53.320;8.672;2022-09-21T14:36:06;102381.59;;;15.17;54.33
20656;BME280;10487;53.320;8.672;2022-09-21T14:39:22;102382.13;;;15.22;54.54
20656;BME280;10487;53.320;8.672;2022-09-21T14:42:26;102380.03;;;15.27;54.08
20656;BME280;10487;53.320;8.672;2022-09-21T14:48:49;102371.22;;;15.37;53.89
20656;BME280;10487;53.320;8.672;2022-09-21T15:02:26;102356.72;;;15.65;53.54
20656;BME280;10487;53.320;8.672;2022-09-21T15:05:45;102353.69;;;15.70;53.75
20656;BME280;10487;53.320;8.672;2022-09-21T15:12:52;102354.44;;;15.72;53.46
20656;BME280;10487;53.320;8.672;2022-09-21T15:15:58;102353.38;;;15.74;53.40
20656;BME280;10487;53.320;8.672;2022-09-21T15:22:20;102350.13;;;15.82;53.39
20656;BME280;10487;53.320;8.672;2022-09-21T15:25:25;102344.53;;;15.85;53.23
20656;BME280;10487;53.320;8.672;2022-09-21T15:28:34;102352.53;;;15.86;53.26
20656;BME280;10487;53.320;8.672;2022-09-21T15:31:57;102345.22;;;15.88;53.13
20656;BME280;10487;53.320;8.672;2022-09-21T15:35:00;102345.22;;;15.88;52.98
20656;BME280;10487;53.320;8.672;2022-09-21T15:38:02;102342.50;;;15.88;53.05
20656;BME280;10487;53.320;8.672;2022-09-21T15:41:05;102353.28;;;15.88;53.16
20656;BME280;10487;53.320;8.672;2022-09-21T15:44:23;102350.06;;;15.83;52.97
20656;BME280;10487;53.320;8.672;2022-09-21T15:47:26;102344.75;;;15.82;52.92
20656;BME280;10487;53.320;8.672;2022-09-21T15:50:30;102340.78;;;15.75;52.77
20656;BME280;10487;53.320;8.672;2022-09-21T15:53:35;102340.25;;;15.70;52.89
20656;BME280;10487;53.320;8.672;2022-09-21T15:56:42;102336.94;;;15.66;52.89
20656;BME280;10487;53.320;8.672;2022-09-21T15:59:44;102344.34;;;15.62;52.78
20656;BME280;10487;53.320;8.672;2022-09-21T16:09:37;102346.06;;;15.51;52.76
20656;BME280;10487;53.320;8.672;2022-09-21T16:12:41;102340.88;;;15.48;52.54
20656;BME280;10487;53.320;8.672;2022-09-21T16:15:59;102338.31;;;15.46;52.69
20656;BME280;10487;53.320;8.672;2022-09-21T16:19:01;102341.09;;;15.45;52.71
20656;BME280;10487;53.320;8.672;2022-09-21T16:22:03;102342.16;;;15.42;52.58
20656;BME280;10487;53.320;8.672;2022-09-21T16:25:23;102338.84;;;15.39;52.63
20656;BME280;10487;53.320;8.672;2022-09-21T16:28:39;102342.69;;;15.35;52.68
20656;BME280;10487;53.320;8.672;2022-09-21T16:31:41;102341.31;;;15.29;52.63
20656;BME280;10487;53.320;8.672;2022-09-21T16:34:50;102344.28;;;15.25;52.49
20656;BME280;10487;53.320;8.672;2022-09-21T16:37:54;102348.34;;;15.18;52.50
20656;BME280;10487;53.320;8.672;2022-09-21T16:41:00;102348.22;;;15.07;52.60
20656;BME280;10487;53.320;8.672;2022-09-21T16:44:02;102348.94;;;14.96;52.78
20656;BME280;10487;53.320;8.672;2022-09-21T16:47:10;102348.78;;;14.85;52.71
20656;BME280;10487;53.320;8.672;2022-09-21T16:50:13;102349.78;;;14.70;52.63
20656;BME280;10487;53.320;8.672;2022-09-21T16:53:19;102354.16;;;14.58;52.71
20656;BME280;10487;53.320;8.672;2022-09-21T16:56:22;102356.69;;;14.47;52.87
20656;BME280;10487;53.320;8.672;2022-09-21T16:59:24;102349.31;;;14.36;52.93
20656;BME280;10487;53.320;8.672;2022-09-21T17:02:26;102351.78;;;14.25;52.76
20656;BME280;10487;53.320;8.672;2022-09-21T17:05:27;102346.25;;;14.14;52.96
20656;BME280;10487;53.320;8.672;2022-09-21T17:08:29;102345.00;;;14.06;52.81
20656;BME280;10487;53.320;8.672;2022-09-21T17:11:32;102347.41;;;13.96;52.94
20656;BME280;10487;53.320;8.672;2022-09-21T17:14:35;102347.25;;;13.85;52.95
20656;BME280;10487;53.320;8.672;2022-09-21T17:17:37;102349.72;;;13.74;52.74
20656;BME280;10487;53.320;8.672;2022-09-21T17:20:41;102344.06;;;13.64;52.94
20656;BME280;10487;53.320;8.672;2022-09-21T17:23:44;102343.06;;;13.51;53.27
20656;BME280;10487;53.320;8.672;2022-09-21T17:26:45;102342.75;;;13.42;53.05
20656;BME280;10487;53.320;8.672;2022-09-21T17:29:47;102343.31;;;13.33;53.05
20656;BME280;10487;53.320;8.672;2022-09-21T17:32:50;102330.44;;;13.24;53.41
20656;BME280;10487;53.320;8.672;2022-09-21T17:35:52;102343.34;;;13.17;53.08
20656;BME280;10487;53.320;8.672;2022-09-21T17:38:55;102342.28;;;13.05;53.33
20656;BME280;10487;53.320;8.672;2022-09-21T17:42:01;102349.13;;;12.95;53.08
20656;BME280;10487;53.320;8.672;2022-09-21T17:45:24;102346.31;;;13.13;53.11
20656;BME280;10487;53.320;8.672;2022-09-21T17:48:29;102341.84;;;12.97;53.22
20656;BME280;10487;53.320;8.672;2022-09-21T17:51:34;102340.66;;;12.87;53.20
20656;BME280;10487;53.320;8.672;2022-09-21T17:54:55;102343.19;;;12.75;53.02
20656;BME280;10487;53.320;8.672;2022-09-21T18:04:19;102348.63;;;12.42;53.37
20656;BME280;10487;53.320;8.672;2022-09-21T18:07:21;102344.66;;;12.33;53.08
20656;BME280;10487;53.320;8.672;2022-09-21T18:10:24;102348.69;;;12.25;53.25
20656;BME280;10487;53.320;8.672;2022-09-21T18:13:38;102351.78;;;12.17;53.13
20656;BME280;10487;53.320;8.672;2022-09-21T18:16:54;102349.47;;;12.11;53.20
20656;BME280;10487;53.320;8.672;2022-09-21T18:23:19;102353.66;;;12.00;53.53
20656;BME280;10487;53.320;8.672;2022-09-21T18:26:22;102353.84;;;11.97;53.05
20656;BME280;10487;53.320;8.672;2022-09-21T18:29:30;102356.84;;;11.91;53.01
20656;BME280;10487;53.320;8.672;2022-09-21T18:36:09;102357.81;;;11.72;53.28
20656;BME280;10487;53.320;8.672;2022-09-21T18:39:29;102361.78;;;11.65;53.26
20656;BME280;10487;53.320;8.672;2022-09-21T18:45:54;102354.63;;;11.49;53.56
20656;BME280;10487;53.320;8.672;2022-09-21T18:49:03;102352.25;;;11.43;53.41
20656;BME280;10487;53.320;8.672;2022-09-21T18:55:29;102358.22;;;11.31;53.31
20656;BME280;10487;53.320;8.672;2022-09-21T18:58:33;102355.91;;;11.25;53.51
20656;BME280;10487;53.320;8.672;2022-09-21T19:01:35;102356.09;;;11.20;53.43
20656;BME280;10487;53.320;8.672;2022-09-21T19:04:37;102350.22;;;11.13;53.51
20656;BME280;10487;53.320;8.672;2022-09-21T19:08:14;102347.88;;;11.07;53.44
20656;BME280;10487;53.320;8.672;2022-09-21T19:11:39;102346.38;;;11.02;53.32
20656;BME280;10487;53.320;8.672;2022-09-21T19:14:58;102343.13;;;10.95;53.59
20656;BME280;10487;53.320;8.672;2022-09-21T19:18:13;102341.72;;;10.88;53.44
20656;BME280;10487;53.320;8.672;2022-09-21T19:27:47;102348.69;;;10.74;53.45